Time;durP1;ratioP1;P1;durP2;ratioP2;P2;SDS_P1;SDS_P2;PMS_P1;PMS_P2;Temp;Humidity;BMP_temperature;BMP_pressure;BME280_temperature;BME280_humidity;BME280_pressure;Samples;Min_cycle;Max_cycle;Signal;HPM_P1;HPM_P2
2021/12/20 00:00:59;;;;;;;0.30;0.30;;;;;;;5.45;86.74;103068.97;5075975;28;20386;-75
2021/12/20 00:03:24;;;;;;;0.10;0.10;;;;;;;5.45;86.55;103075.84;5075316;28;20098;-75
2021/12/20 00:05:50;;;;;;;0.20;0.20;;;;;;;5.46;86.45;103068.19;5060295;28;20037;-75
2021/12/20 00:08:15;;;;;;;0.13;0.13;;;;;;;5.46;86.85;103055.22;5073347;28;20341;-75
2021/12/20 00:10:40;;;;;;;0.10;0.10;;;;;;;5.44;86.69;103054.19;5075621;28;20055;-75
2021/12/20 00:13:06;;;;;;;0.20;0.20;;;;;;;5.44;86.63;103058.44;5058034;28;20314;-76
2021/12/20 00:15:31;;;;;;;0.10;0.10;;;;;;;5.44;86.84;103061.97;5075216;28;20085;-75
2021/12/20 00:17:57;;;;;;;0.10;0.10;;;;;;;5.43;86.59;103067.91;5075518;28;20033;-75
2021/12/20 00:20:22;;;;;;;0.20;0.20;;;;;;;5.42;86.86;103053.09;5075027;28;20039;-75
2021/12/20 00:22:48;;;;;;;0.20;0.20;;;;;;;5.42;86.45;103055.72;5075322;28;20353;-75
2021/12/20 00:25:14;;;;;;;0.10;0.10;;;;;;;5.42;86.51;103057.41;5075050;28;20371;-75
2021/12/20 00:27:39;;;;;;;0.20;0.20;;;;;;;5.42;86.27;103062.63;5059253;28;20044;-75
2021/12/20 00:30:06;;;;;;;0.10;0.10;;;;;;;5.40;85.19;103061.59;5078708;28;20042;-77
2021/12/20 00:32:32;;;;;;;0.23;0.23;;;;;;;5.39;83.94;103058.06;5058148;28;20016;-75
2021/12/20 00:34:57;;;;;;;0.20;0.20;;;;;;;5.41;83.25;103053.00;5067135;28;20462;-75
2021/12/20 00:40:20;;;;;;;0.30;0.30;;;;;;;5.39;81.10;103041.53;5076892;28;20413;-76
2021/12/20 00:42:46;;;;;;;0.23;0.23;;;;;;;5.34;79.99;103047.28;5079006;28;20066;-75
2021/12/20 00:45:13;;;;;;;0.30;0.30;;;;;;;5.33;80.86;103047.13;5078088;28;20029;-75
2021/12/20 00:47:39;;;;;;;0.30;0.30;;;;;;;5.31;79.50;103048.69;5064843;28;20033;-76
2021/12/20 00:50:06;;;;;;;0.30;0.30;;;;;;;5.28;78.76;103041.53;5061386;28;20047;-75
2021/12/20 00:52:31;;;;;;;0.30;0.30;;;;;;;5.28;76.92;103040.66;5078380;28;20029;-76
2021/12/20 00:54:57;;;;;;;0.30;0.30;;;;;;;5.28;76.40;103043.25;5073266;28;20074;-76
2021/12/20 00:57:23;;;;;;;0.40;0.40;;;;;;;5.34;74.02;103039.47;5045153;28;20020;-77
2021/12/20 00:59:48;;;;;;;0.30;0.30;;;;;;;5.36;74.50;103030.13;5044150;28;20361;-77
2021/12/20 01:02:13;;;;;;;0.30;0.30;;;;;;;5.35;75.49;103032.56;5060421;28;20055;-76
2021/12/20 01:04:39;;;;;;;0.30;0.30;;;;;;;5.31;75.41;103033.13;5063831;28;20036;-76
2021/12/20 01:07:04;;;;;;;0.40;0.40;;;;;;;5.29;75.53;103037.28;5074499;28;20075;-77
2021/12/20 01:09:29;;;;;;;0.27;0.27;;;;;;;5.25;76.21;103041.31;5041457;28;20390;-77
2021/12/20 01:12:02;;;;;;;0.30;0.30;;;;;;;5.22;76.61;103041.00;5074796;28;20434;-77
2021/12/20 01:14:30;;;;;;;0.30;0.30;;;;;;;5.20;77.28;103034.78;5078057;28;20111;-76
2021/12/20 01:17:02;;;;;;;0.30;0.30;;;;;;;5.17;77.98;103031.94;5078480;28;20363;-77
2021/12/20 01:19:27;;;;;;;0.30;0.30;;;;;;;5.15;79.28;103039.59;5061733;28;20037;-77
2021/12/20 01:21:52;;;;;;;0.30;0.30;;;;;;;5.14;77.62;103029.06;5061542;28;20044;-76
2021/12/20 01:24:18;;;;;;;0.30;0.30;;;;;;;5.14;77.36;103029.06;5077713;28;20059;-77
2021/12/20 01:26:43;;;;;;;0.30;0.30;;;;;;;5.17;76.82;103030.22;5078509;28;20407;-76
2021/12/20 01:29:09;;;;;;;0.30;0.30;;;;;;;5.22;76.37;103025.44;5078316;28;20051;-76
2021/12/20 01:31:34;;;;;;;0.37;0.37;;;;;;;5.20;76.12;103025.31;5078740;28;20094;-76
2021/12/20 01:33:59;;;;;;;0.37;0.37;;;;;;;5.17;77.78;103029.34;5077922;28;20119;-76
2021/12/20 01:36:25;;;;;;;0.30;0.30;;;;;;;5.12;78.25;103023.75;5079221;28;20028;-76
2021/12/20 01:38:50;;;;;;;0.30;0.30;;;;;;;5.08;76.65;103025.19;5062032;28;20120;-77
2021/12/20 01:41:16;;;;;;;0.40;0.40;;;;;;;5.07;76.12;103028.56;5078992;28;20028;-77
2021/12/20 01:43:41;;;;;;;0.20;0.20;;;;;;;5.06;76.34;103029.31;5077653;28;20036;-76
2021/12/20 01:46:07;;;;;;;0.40;0.40;;;;;;;5.04;77.46;103023.09;5078563;28;20036;-76
2021/12/20 01:48:32;;;;;;;0.30;0.30;;;;;;;5.02;75.63;103026.31;5061575;28;20442;-77
2021/12/20 01:53:34;;;;;;;0.30;0.30;;;;;;;5.03;76.50;103023.88;5078110;28;20383;-76
2021/12/20 01:56:00;;;;;;;0.40;0.40;;;;;;;5.01;77.29;103032.28;5077856;28;20455;-76
2021/12/20 01:58:27;;;;;;;0.30;0.30;;;;;;;5.00;77.87;103026.22;5077597;28;20111;-76
2021/12/20 02:03:40;;;;;;;0.30;0.30;;;;;;;5.00;75.07;103030.47;5069042;28;20110;-76
2021/12/20 02:06:13;;;;;;;0.30;0.30;;;;;;;5.03;75.36;103031.66;5052451;28;20045;-76
2021/12/20 02:08:40;;;;;;;0.30;0.30;;;;;;;5.04;75.32;103038.66;5070947;28;20422;-77
2021/12/20 02:11:10;;;;;;;0.37;0.37;;;;;;;5.08;74.79;103021.66;5067979;28;20300;-76
2021/12/20 02:13:38;;;;;;;0.40;0.40;;;;;;;5.09;74.64;103028.66;5063840;28;20028;-77
2021/12/20 02:16:04;;;;;;;0.30;0.30;;;;;;;5.07;74.37;103018.16;5069245;28;20108;-76
2021/12/20 02:18:30;;;;;;;0.30;0.30;;;;;;;5.07;75.75;103012.06;5073774;28;20052;-76
2021/12/20 02:20:56;;;;;;;0.40;0.40;;;;;;;5.05;74.80;103022.31;5078561;28;20056;-76
2021/12/20 02:23:22;;;;;;;0.40;0.40;;;;;;;5.05;73.85;103011.91;5077736;28;20082;-76
2021/12/20 02:25:47;;;;;;;0.40;0.40;;;;;;;5.07;76.20;103019.84;5077212;28;20379;-76
2021/12/20 02:28:15;;;;;;;0.30;0.30;;;;;;;5.04;76.06;103011.81;5059762;28;20029;-77
2021/12/20 02:36:56;;;;;;;0.30;0.30;;;;;;;5.02;76.31;103011.66;5077373;28;20039;-76
2021/12/20 02:38:54;;;;;;;0.30;0.30;;;;;;;5.00;76.46;103009.72;5077402;28;20033;-75
2021/12/20 02:41:31;;;;;;;0.30;0.30;;;;;;;4.99;77.26;103016.59;5056882;28;20108;-77
2021/12/20 02:44:03;;;;;;;0.40;0.40;;;;;;;4.97;77.02;103004.25;5039110;28;20344;-76
2021/12/20 02:47:28;;;;;;;0.30;0.30;;;;;;;4.96;75.95;102998.16;5069054;28;20040;-76
2021/12/20 02:49:20;;;;;;;0.30;0.30;;;;;;;4.97;75.72;103007.75;5069456;28;20064;-76
2021/12/20 02:51:47;;;;;;;0.30;0.30;;;;;;;4.97;76.35;102999.97;5059331;28;20025;-76
2021/12/20 02:54:13;;;;;;;0.30;0.30;;;;;;;4.97;74.80;103001.66;5042812;28;20032;-77
2021/12/20 02:56:41;;;;;;;0.33;0.33;;;;;;;4.99;75.69;103000.09;5076626;28;20051;-76
2021/12/20 02:59:07;;;;;;;0.30;0.30;;;;;;;4.97;74.19;102999.06;5076814;28;20032;-76
2021/12/20 03:01:33;;;;;;;0.30;0.30;;;;;;;5.02;73.62;102997.75;5076964;28;20109;-77
2021/12/20 03:04:00;;;;;;;0.30;0.30;;;;;;;5.02;75.57;102993.47;5077207;28;20316;-76
2021/12/20 03:06:37;;;;;;;0.30;0.30;;;;;;;5.07;73.74;102994.81;5058990;28;20075;-76
2021/12/20 03:09:03;;;;;;;0.30;0.30;;;;;;;5.07;73.04;103001.66;5062287;28;20389;-76
2021/12/20 03:11:29;;;;;;;0.50;0.50;;;;;;;5.05;73.39;102998.94;5076118;28;20032;-76
2021/12/20 03:14:05;;;;;;;0.30;0.30;;;;;;;5.06;73.43;102994.66;5074652;28;20016;-76
2021/12/20 03:16:31;;;;;;;0.40;0.40;;;;;;;5.06;73.12;102998.16;5060647;28;20028;-77
2021/12/20 03:18:56;;;;;;;0.30;0.30;;;;;;;5.07;74.48;102996.47;5076500;28;20140;-75
2021/12/20 03:21:21;;;;;;;0.40;0.40;;;;;;;5.04;77.00;103007.50;5077144;28;20355;-76
2021/12/20 03:23:47;;;;;;;0.30;0.30;;;;;;;5.01;77.58;103002.06;5076144;28;20041;-76
2021/12/20 03:26:12;;;;;;;0.40;0.40;;;;;;;4.98;76.13;102998.28;5076890;28;20039;-76
2021/12/20 03:28:38;;;;;;;0.20;0.20;;;;;;;4.98;76.12;103000.88;5076121;28;20024;-76
2021/12/20 03:31:03;;;;;;;0.30;0.30;;;;;;;4.96;75.85;103000.75;5076698;28;20299;-76
2021/12/20 03:33:28;;;;;;;0.30;0.30;;;;;;;4.95;76.47;102998.94;5076260;28;20115;-76
2021/12/20 03:35:54;;;;;;;0.30;0.30;;;;;;;4.94;77.24;103002.31;5076248;28;20043;-76
2021/12/20 03:38:19;;;;;;;0.30;0.30;;;;;;;4.92;77.50;102994.38;5076058;28;20445;-76
2021/12/20 03:40:45;;;;;;;0.40;0.40;;;;;;;4.90;77.69;103006.31;5076277;28;20028;-76
2021/12/20 03:43:12;;;;;;;0.30;0.30;;;;;;;4.91;76.21;103002.94;5075933;28;20025;-76
2021/12/20 03:45:37;;;;;;;0.30;0.30;;;;;;;4.92;77.67;102998.69;5075714;28;20097;-76
2021/12/20 03:48:03;;;;;;;0.30;0.30;;;;;;;4.91;76.67;102995.16;5076505;28;20029;-76
2021/12/20 03:50:29;;;;;;;0.30;0.30;;;;;;;4.91;76.24;102991.63;5075690;28;20028;-76
2021/12/20 03:52:54;;;;;;;0.30;0.30;;;;;;;4.91;75.61;102997.75;5076182;28;20037;-76
2021/12/20 03:55:19;;;;;;;0.30;0.30;;;;;;;4.91;75.97;102994.22;5059062;28;20375;-78
2021/12/20 03:57:45;;;;;;;0.20;0.20;;;;;;;4.91;76.90;102989.97;5076062;28;20048;-76
2021/12/20 04:00:13;;;;;;;0.30;0.30;;;;;;;4.91;76.28;102989.03;5075775;28;20028;-77
2021/12/20 04:02:42;;;;;;;0.30;0.30;;;;;;;4.91;77.28;102984.78;5078547;28;20028;-76
2021/12/20 04:05:09;;;;;;;0.40;0.40;;;;;;;4.89;77.10;102985.41;5080296;28;20032;-76
2021/12/20 04:07:34;;;;;;;0.30;0.30;;;;;;;4.88;74.75;102991.38;5078316;28;20024;-76
2021/12/20 04:10:00;;;;;;;0.30;0.30;;;;;;;4.93;73.84;102995.31;5062928;28;20055;-77
2021/12/20 04:12:25;;;;;;;0.37;0.37;;;;;;;4.96;73.56;102998.16;5079913;28;20028;-77
2021/12/20 04:14:51;;;;;;;0.20;0.20;;;;;;;5.02;71.97;102996.09;5080167;28;20031;-78
2021/12/20 04:17:16;;;;;;;0.27;0.27;;;;;;;5.03;73.29;102996.97;5062978;28;20294;-76
2021/12/20 04:19:41;;;;;;;0.30;0.30;;;;;;;5.01;71.19;102988.16;5062432;28;20291;-77
2021/12/20 04:22:07;;;;;;;0.30;0.30;;;;;;;5.01;70.70;102989.06;5046145;28;20119;-77
2021/12/20 04:24:34;;;;;;;0.30;0.30;;;;;;;5.02;69.96;102992.56;5079352;28;20035;-76
2021/12/20 04:26:59;;;;;;;0.43;0.43;;;;;;;5.01;71.31;102986.47;5079433;28;20041;-76
2021/12/20 04:29:27;;;;;;;0.30;0.30;;;;;;;5.00;71.06;102989.84;5079520;28;20390;-77
2021/12/20 04:31:52;;;;;;;0.30;0.30;;;;;;;5.00;71.03;102999.31;5080091;28;20028;-76
2021/12/20 04:34:18;;;;;;;0.40;0.40;;;;;;;4.99;69.85;102997.50;5079617;28;20361;-77
2021/12/20 04:36:43;;;;;;;0.30;0.30;;;;;;;4.99;70.40;102995.84;5062176;28;20051;-77
2021/12/20 04:39:13;;;;;;;0.20;0.20;;;;;;;4.97;70.35;102994.75;5080222;28;20029;-77
2021/12/20 04:41:39;;;;;;;0.30;0.30;;;;;;;4.98;69.90;102985.31;5079149;28;20048;-76
2021/12/20 04:44:05;;;;;;;0.30;0.30;;;;;;;4.98;69.37;102993.97;5062148;28;20043;-77
2021/12/20 04:46:31;;;;;;;0.40;0.40;;;;;;;4.98;70.65;102996.59;5079188;28;20032;-76
2021/12/20 04:48:56;;;;;;;0.30;0.30;;;;;;;4.98;71.97;102998.28;5062360;28;20029;-76
2021/12/20 04:51:22;;;;;;;0.33;0.33;;;;;;;4.94;72.78;102992.81;5079737;28;20020;-76
2021/12/20 04:53:47;;;;;;;0.30;0.30;;;;;;;4.91;71.07;102991.63;5079236;28;20036;-77
2021/12/20 04:56:13;;;;;;;0.30;0.30;;;;;;;4.90;71.02;102990.75;5079676;28;20108;-77
2021/12/20 04:58:38;;;;;;;0.30;0.30;;;;;;;4.91;71.05;102994.22;5078948;28;20036;-77
2021/12/20 05:01:03;;;;;;;0.40;0.40;;;;;;;4.90;73.07;102990.75;5078951;28;20028;-76
2021/12/20 05:03:29;;;;;;;0.40;0.40;;;;;;;4.94;70.79;102989.31;5078726;28;20054;-74
2021/12/20 05:05:54;;;;;;;0.33;0.33;;;;;;;5.02;69.39;102987.38;5044929;28;20066;-77
2021/12/20 05:08:20;;;;;;;0.40;0.40;;;;;;;5.03;69.48;102986.59;5072291;28;20074;-76
2021/12/20 05:10:45;;;;;;;0.30;0.30;;;;;;;5.01;70.24;102991.66;5078847;28;20025;-75
2021/12/20 05:13:12;;;;;;;0.30;0.30;;;;;;;5.00;70.65;102989.84;5077721;28;20107;-75
2021/12/20 05:15:39;;;;;;;0.30;0.30;;;;;;;5.00;70.30;102994.13;5061338;28;20461;-76
2021/12/20 05:18:06;;;;;;;0.30;0.30;;;;;;;5.02;70.11;102984.78;5061216;28;20298;-77
2021/12/20 05:20:31;;;;;;;0.40;0.40;;;;;;;5.04;70.28;102991.91;5078312;28;20024;-77
2021/12/20 05:22:57;;;;;;;0.30;0.30;;;;;;;5.02;71.33;103003.88;5061483;28;20119;-76
2021/12/20 05:25:23;;;;;;;0.40;0.40;;;;;;;5.00;70.59;103007.09;5078647;28;20337;-76
2021/12/20 05:27:49;;;;;;;0.30;0.30;;;;;;;5.01;70.06;103001.13;5061393;28;20402;-77
2021/12/20 05:30:15;;;;;;;0.30;0.30;;;;;;;5.06;69.84;103002.44;5060663;28;20032;-77
2021/12/20 05:32:41;;;;;;;0.40;0.40;;;;;;;5.05;70.65;103000.63;5060899;28;20039;-76
2021/12/20 05:35:07;;;;;;;0.30;0.30;;;;;;;5.03;69.89;103003.09;5078167;28;20032;-76
2021/12/20 05:37:33;;;;;;;0.37;0.37;;;;;;;5.14;67.85;103013.47;5078246;28;20098;-76
2021/12/20 05:39:58;;;;;;;0.40;0.40;;;;;;;5.11;67.85;103011.53;5061224;28;20025;-75
2021/12/20 05:42:24;;;;;;;0.40;0.40;;;;;;;5.08;68.76;103012.19;5078530;28;20040;-76
2021/12/20 05:44:51;;;;;;;0.40;0.40;;;;;;;5.04;69.76;103010.09;5078168;28;20028;-76
2021/12/20 05:47:18;;;;;;;0.40;0.40;;;;;;;4.99;72.26;103006.22;5078109;28;20025;-75
2021/12/20 05:49:44;;;;;;;0.40;0.40;;;;;;;4.94;69.85;103010.97;5078230;28;20028;-76
2021/12/20 05:52:09;;;;;;;0.30;0.30;;;;;;;4.90;71.89;102998.53;5078360;28;20074;-76
2021/12/20 05:54:34;;;;;;;0.30;0.30;;;;;;;4.89;68.81;103004.50;5077423;28;20055;-76
2021/12/20 05:57:00;;;;;;;0.30;0.30;;;;;;;4.90;68.79;103003.72;5078515;28;20024;-76
2021/12/20 05:59:25;;;;;;;0.30;0.30;;;;;;;4.89;70.12;103008.78;5077307;28;20028;-76
2021/12/20 06:01:51;;;;;;;0.40;0.40;;;;;;;4.88;70.93;103005.28;5060847;28;20035;-76
2021/12/20 06:04:16;;;;;;;0.40;0.40;;;;;;;4.86;71.40;103009.41;5077174;28;20044;-75
2021/12/20 06:06:42;;;;;;;0.30;0.30;;;;;;;4.85;70.46;103010.19;5077725;28;20032;-77
2021/12/20 06:09:07;;;;;;;0.30;0.30;;;;;;;4.86;68.67;103011.13;5077592;28;20033;-77
2021/12/20 06:11:35;;;;;;;0.40;0.40;;;;;;;4.89;68.75;103009.69;5079170;28;20028;-77
2021/12/20 06:14:01;;;;;;;0.30;0.30;;;;;;;4.91;68.87;103005.53;5078626;28;20051;-77
2021/12/20 06:16:26;;;;;;;0.30;0.30;;;;;;;4.88;68.98;103004.38;5077903;28;20314;-77
2021/12/20 06:18:53;;;;;;;0.40;0.40;;;;;;;4.89;70.42;103011.38;5076391;28;20690;-75
2021/12/20 06:21:19;;;;;;;0.30;0.30;;;;;;;4.85;71.95;103020.59;5077961;28;20419;-76
2021/12/20 06:23:45;;;;;;;0.40;0.40;;;;;;;4.81;72.86;103019.41;5077696;28;20122;-75
2021/12/20 06:26:10;;;;;;;0.30;0.30;;;;;;;4.81;70.30;103013.31;5073505;28;20029;-76
2021/12/20 06:28:36;;;;;;;0.40;0.40;;;;;;;4.82;69.40;103007.34;5064875;28;20051;-78
2021/12/20 06:31:02;;;;;;;1.70;1.00;;;;;;;4.82;71.68;103009.94;5065371;28;20032;-76
2021/12/20 06:33:27;;;;;;;0.30;0.30;;;;;;;4.78;69.29;103008.78;5064074;28;20257;-75
2021/12/20 06:35:53;;;;;;;0.40;0.40;;;;;;;4.79;68.83;102999.28;5067109;28;20138;-76
2021/12/20 06:38:20;;;;;;;0.30;0.30;;;;;;;4.80;69.53;103006.31;5066368;28;20024;-76
2021/12/20 06:40:48;;;;;;;0.33;0.33;;;;;;;4.81;68.68;103010.72;5046749;28;20035;-77
2021/12/20 06:43:14;;;;;;;0.40;0.40;;;;;;;4.82;70.19;103012.53;5070790;28;20037;-76
2021/12/20 06:45:39;;;;;;;0.40;0.40;;;;;;;4.80;69.63;103024.50;5076106;28;20047;-76
2021/12/20 06:48:05;;;;;;;0.30;0.30;;;;;;;4.78;69.99;103021.75;5040039;28;20075;-76
2021/12/20 06:50:31;;;;;;;0.30;0.30;;;;;;;4.78;69.32;103023.41;5039679;28;20114;-77
2021/12/20 06:52:57;;;;;;;0.40;0.40;;;;;;;4.78;69.81;103013.97;5057554;28;20393;-76
2021/12/20 06:55:22;;;;;;;0.30;0.30;;;;;;;4.78;69.28;103028.59;5057156;28;20017;-76
2021/12/20 06:57:48;;;;;;;0.30;0.30;;;;;;;4.77;68.35;103019.00;5056995;28;20032;-77
2021/12/20 07:00:13;;;;;;;0.40;0.40;;;;;;;4.77;70.94;103022.53;5066227;28;20037;-77
2021/12/20 07:02:39;;;;;;;0.40;0.40;;;;;;;4.75;70.19;103024.09;5055851;28;20036;-76
2021/12/20 07:05:05;;;;;;;0.37;0.37;;;;;;;4.72;72.34;103017.72;5056917;28;20039;-77
2021/12/20 07:07:31;;;;;;;0.30;0.30;;;;;;;4.69;71.27;103028.72;5064247;28;20035;-76
2021/12/20 07:09:57;;;;;;;0.33;0.33;;;;;;;4.68;72.61;103021.72;5076957;28;20036;-77
2021/12/20 07:12:22;;;;;;;0.40;0.40;;;;;;;4.67;73.68;103025.09;5076775;28;20047;-76
2021/12/20 07:14:50;;;;;;;0.30;0.30;;;;;;;4.64;71.72;103020.56;5073066;28;20025;-76
2021/12/20 07:17:17;;;;;;;0.30;0.30;;;;;;;4.65;69.49;103017.16;5039249;28;20024;-77
2021/12/20 07:19:42;;;;;;;0.30;0.30;;;;;;;4.66;70.62;103015.47;5055944;28;20048;-76
2021/12/20 07:22:08;;;;;;;0.30;0.30;;;;;;;4.70;69.70;103025.38;5056666;28;20032;-78
2021/12/20 07:24:34;;;;;;;0.40;0.40;;;;;;;4.71;68.16;103024.56;5056287;28;20032;-77
2021/12/20 07:26:59;;;;;;;0.30;0.30;;;;;;;4.73;69.30;103020.41;5056603;28;20032;-76
2021/12/20 07:29:24;;;;;;;0.40;0.40;;;;;;;4.77;68.74;103009.53;5056035;28;20075;-77
2021/12/20 07:31:50;;;;;;;0.30;0.30;;;;;;;4.79;69.26;103012.25;5056970;28;20028;-76
2021/12/20 07:34:15;;;;;;;0.40;0.40;;;;;;;4.78;68.68;103021.75;5056731;28;20311;-77
2021/12/20 07:36:41;;;;;;;0.30;0.30;;;;;;;4.79;67.73;103023.56;5075734;28;20052;-76
2021/12/20 07:39:06;;;;;;;0.30;0.30;;;;;;;4.79;68.57;103020.97;5059021;28;20035;-77
2021/12/20 07:41:32;;;;;;;0.40;0.40;;;;;;;4.80;67.79;103021.88;5076294;28;20028;-77
2021/12/20 07:43:57;;;;;;;0.30;0.30;;;;;;;4.80;69.32;103014.09;5076109;28;20028;-78
2021/12/20 07:46:23;;;;;;;0.47;0.47;;;;;;;4.78;68.91;103011.38;5075519;28;20047;-76
2021/12/20 07:48:50;;;;;;;0.40;0.40;;;;;;;4.77;69.26;103019.00;5075634;28;20057;-76
2021/12/20 07:51:17;;;;;;;0.40;0.40;;;;;;;4.76;70.17;103025.91;5076051;28;20069;-76
2021/12/20 07:53:42;;;;;;;0.40;0.40;;;;;;;4.75;68.56;103034.47;5058797;28;20331;-76
2021/12/20 07:56:07;;;;;;;0.40;0.40;;;;;;;4.76;68.12;103037.97;5076713;28;20094;-76
2021/12/20 07:58:33;;;;;;;0.40;0.40;;;;;;;4.76;68.40;103027.56;5075851;28;20147;-77
2021/12/20 08:01:01;;;;;;;0.30;0.30;;;;;;;4.77;68.88;103030.31;5058884;28;20103;-76
2021/12/20 08:03:28;;;;;;;0.30;0.30;;;;;;;4.76;67.28;103033.69;5058353;28;20031;-77
2021/12/20 08:05:54;;;;;;;0.40;0.40;;;;;;;4.77;68.85;103034.59;5076484;28;20044;-77
2021/12/20 08:08:19;;;;;;;0.40;0.40;;;;;;;4.76;68.78;103041.47;5056415;28;20083;-78
2021/12/20 08:10:45;;;;;;;0.30;0.30;;;;;;;4.74;69.48;103043.00;5055926;28;20086;-78
2021/12/20 08:13:12;;;;;;;0.30;0.30;;;;;;;4.72;69.55;103043.69;5055717;28;20025;-77
2021/12/20 08:15:38;;;;;;;0.40;0.40;;;;;;;4.71;69.19;103054.81;5048013;28;20060;-76
2021/12/20 08:18:04;;;;;;;0.40;0.40;;;;;;;4.70;70.75;103038.34;5058871;28;20032;-76
2021/12/20 08:20:30;;;;;;;0.30;0.30;;;;;;;4.70;69.92;103051.31;5058065;28;20024;-77
2021/12/20 08:22:56;;;;;;;0.40;0.40;;;;;;;4.71;70.11;103047.00;5067272;28;20392;-77
2021/12/20 08:25:22;;;;;;;0.40;0.40;;;;;;;4.68;70.59;103045.09;5033009;28;20021;-76
2021/12/20 08:27:48;;;;;;;0.40;0.40;;;;;;;4.70;69.53;103053.91;5062945;28;20048;-77
2021/12/20 08:30:14;;;;;;;0.30;0.30;;;;;;;4.71;69.35;103050.53;5056686;28;20032;-78
2021/12/20 08:32:40;;;;;;;0.30;0.30;;;;;;;4.75;69.63;103057.84;5076342;28;20081;-77
2021/12/20 08:35:07;;;;;;;0.40;0.40;;;;;;;4.75;69.33;103060.44;5058301;28;20020;-78
2021/12/20 08:37:33;;;;;;;0.33;0.33;;;;;;;4.90;68.67;103060.84;5079751;28;20029;-77
2021/12/20 08:39:58;;;;;;;0.40;0.40;;;;;;;4.86;70.03;103058.75;5080088;28;20032;-77
2021/12/20 08:42:24;;;;;;;0.40;0.40;;;;;;;4.85;70.16;103067.31;5060984;28;20035;-77
2021/12/20 08:44:50;;;;;;;0.30;0.30;;;;;;;4.84;70.75;103056.81;5060524;28;20033;-76
2021/12/20 08:47:16;;;;;;;0.40;0.40;;;;;;;4.85;71.06;103051.72;5080174;28;20028;-77
2021/12/20 08:49:42;;;;;;;0.40;0.40;;;;;;;4.86;71.08;103056.16;5081687;28;20024;-78
2021/12/20 08:52:08;;;;;;;0.50;0.50;;;;;;;4.85;71.64;103059.53;5082220;28;20060;-77
2021/12/20 08:54:33;;;;;;;0.33;0.33;;;;;;;4.86;72.63;103056.16;5079303;28;20056;-77
2021/12/20 08:56:59;;;;;;;0.30;0.30;;;;;;;4.88;72.68;103058.88;5046353;28;20017;-77
2021/12/20 08:59:25;;;;;;;0.40;0.40;;;;;;;4.84;73.46;103057.72;5044673;28;20310;-78
2021/12/20 09:01:54;;;;;;;0.40;0.40;;;;;;;4.82;73.73;103061.88;5061646;28;20124;-77
2021/12/20 09:04:19;;;;;;;0.30;0.30;;;;;;;4.82;73.41;103074.84;5079967;28;20107;-78
2021/12/20 09:06:45;;;;;;;0.40;0.40;;;;;;;4.82;73.72;103072.25;5062005;28;20119;-79
2021/12/20 09:09:15;;;;;;;0.40;0.40;;;;;;;4.85;74.68;103071.63;5078754;28;20040;-77
2021/12/20 09:11:41;;;;;;;0.30;0.30;;;;;;;4.85;73.06;103069.03;5078965;28;20024;-77
2021/12/20 09:14:07;;;;;;;0.40;0.40;;;;;;;4.87;74.06;103068.38;5061509;28;20383;-77
2021/12/20 09:16:32;;;;;;;0.30;0.30;;;;;;;4.90;73.45;103079.03;5079125;28;20109;-77
2021/12/20 09:19:02;;;;;;;0.40;0.40;;;;;;;4.92;74.46;103072.28;5079086;28;20395;-77
2021/12/20 09:21:27;;;;;;;0.30;0.30;;;;;;;4.91;74.30;103073.06;5079528;28;20033;-76
2021/12/20 09:23:55;;;;;;;0.40;0.40;;;;;;;4.90;73.77;103071.22;5061814;28;20442;-77
2021/12/20 09:26:20;;;;;;;0.30;0.30;;;;;;;4.90;73.66;103084.22;5060779;28;20017;-77
2021/12/20 09:28:46;;;;;;;0.30;0.30;;;;;;;4.90;74.14;103075.50;5061094;28;20055;-77
2021/12/20 09:31:11;;;;;;;0.33;0.33;;;;;;;4.91;73.88;103069.53;5061445;28;20382;-77
2021/12/20 09:33:37;;;;;;;0.30;0.30;;;;;;;4.90;73.90;103071.22;5078634;28;20056;-78
2021/12/20 09:36:03;;;;;;;0.40;0.40;;;;;;;4.93;74.36;103074.09;5060493;28;20040;-77
2021/12/20 09:38:31;;;;;;;0.30;0.30;;;;;;;4.94;75.08;103075.91;5078844;28;20071;-77
2021/12/20 09:43:37;;;;;;;0.30;0.30;;;;;;;4.98;74.28;103076.19;5078519;28;20076;-78
2021/12/20 09:46:02;;;;;;;0.30;0.30;;;;;;;5.01;73.57;103079.03;5060950;28;20032;-77
2021/12/20 09:48:28;;;;;;;0.30;0.30;;;;;;;5.05;74.38;103081.16;5078174;28;20042;-76
2021/12/20 09:50:55;;;;;;;0.20;0.20;;;;;;;5.04;73.89;103082.81;5078688;28;20068;-76
2021/12/20 09:53:21;;;;;;;0.30;0.30;;;;;;;5.07;73.27;103087.38;5077527;28;20437;-76
2021/12/20 09:55:48;;;;;;;0.30;0.30;;;;;;;5.06;74.27;103083.84;5078054;28;20032;-78
2021/12/20 09:58:13;;;;;;;0.30;0.30;;;;;;;5.11;75.07;103094.63;5044089;28;20048;-78
2021/12/20 10:00:40;;;;;;;0.30;0.30;;;;;;;5.13;74.38;103087.00;5043739;28;20032;-76
2021/12/20 10:03:05;;;;;;;0.40;0.40;;;;;;;5.14;73.51;103087.13;5061084;28;20405;-78
2021/12/20 10:05:32;;;;;;;0.30;0.30;;;;;;;5.19;74.33;103085.84;5077949;28;20028;-77
2021/12/20 10:08:01;;;;;;;0.40;0.40;;;;;;;5.19;74.04;103075.47;5042638;28;20354;-77
2021/12/20 10:10:53;;;;;;;0.30;0.30;;;;;;;5.23;73.81;103080.13;5061049;28;20112;-78
2021/12/20 10:13:24;;;;;;;0.30;0.30;;;;;;;5.24;73.31;103083.66;5075278;28;20096;-77
2021/12/20 10:15:50;;;;;;;0.30;0.30;;;;;;;5.26;73.18;103094.16;5077790;28;20028;-77
2021/12/20 10:18:16;;;;;;;0.43;0.43;;;;;;;5.29;73.68;103090.13;5077778;28;20036;-76
2021/12/20 10:20:48;;;;;;;0.40;0.40;;;;;;;5.34;73.58;103082.72;5077865;28;20120;-77
2021/12/20 10:23:22;;;;;;;0.30;0.30;;;;;;;5.38;74.83;103087.44;5060300;28;20382;-76
2021/12/20 10:25:52;;;;;;;0.30;0.30;;;;;;;5.42;74.63;103086.88;5053102;28;20112;-77
2021/12/20 10:28:21;;;;;;;0.30;0.30;;;;;;;5.47;73.76;103087.28;5060257;28;20390;-77
2021/12/20 10:30:50;;;;;;;0.40;0.40;;;;;;;5.47;72.27;103088.19;5078133;28;20039;-77
2021/12/20 10:33:18;;;;;;;0.37;0.37;;;;;;;5.48;71.35;103086.53;5062060;28;20046;-77
2021/12/20 10:35:47;;;;;;;0.30;0.30;;;;;;;5.52;72.26;103085.09;5077702;28;20021;-77
2021/12/20 10:38:47;;;;;;;0.40;0.40;;;;;;;5.59;72.09;103080.53;5061298;28;20028;-77
2021/12/20 10:41:18;;;;;;;0.40;0.40;;;;;;;5.63;73.14;103076.50;5018785;28;20102;-75
2021/12/20 10:43:50;;;;;;;0.30;0.30;;;;;;;5.66;72.23;103081.97;5077396;28;20029;-76
2021/12/20 10:46:16;;;;;;;0.37;0.37;;;;;;;5.68;72.17;103090.81;5077258;28;20075;-77
2021/12/20 10:48:43;;;;;;;0.30;0.30;;;;;;;5.73;71.31;103091.22;5060549;28;20363;-77
2021/12/20 10:51:22;;;;;;;0.30;0.30;;;;;;;5.77;70.70;103088.06;5060103;28;20036;-77
2021/12/20 10:53:58;;;;;;;0.40;0.40;;;;;;;5.75;71.12;103080.13;5059670;28;20264;-78
2021/12/20 10:56:25;;;;;;;0.30;0.30;;;;;;;5.73;69.98;103078.22;5060104;28;20025;-76
2021/12/20 10:58:51;;;;;;;0.30;0.30;;;;;;;5.72;71.41;103089.41;5076706;28;20378;-76
2021/12/20 11:01:32;;;;;;;0.40;0.40;;;;;;;5.71;69.63;103091.06;5059455;28;20090;-78
2021/12/20 11:03:58;;;;;;;0.40;0.40;;;;;;;5.73;69.45;103084.28;5077144;28;20069;-77
2021/12/20 11:06:26;;;;;;;0.30;0.30;;;;;;;5.68;69.24;103084.69;5077094;28;20021;-76
2021/12/20 11:09:05;;;;;;;0.30;0.30;;;;;;;5.70;70.67;103084.06;5059529;28;20020;-77
2021/12/20 11:11:36;;;;;;;0.40;0.40;;;;;;;5.73;70.22;103071.28;5060719;28;20060;-78
2021/12/20 11:14:04;;;;;;;0.40;0.40;;;;;;;5.74;71.09;103077.41;5058511;28;20016;-77
2021/12/20 11:16:36;;;;;;;0.40;0.40;;;;;;;5.73;71.47;103076.50;5076704;28;20029;-77
2021/12/20 11:19:07;;;;;;;0.30;0.30;;;;;;;5.75;71.67;103089.63;5076689;28;20099;-76
2021/12/20 11:21:38;;;;;;;0.40;0.40;;;;;;;5.72;71.31;103077.28;5076877;28;20394;-77
2021/12/20 11:24:08;;;;;;;0.30;0.30;;;;;;;5.69;70.83;103069.25;5076485;28;20043;-77
2021/12/20 11:26:34;;;;;;;0.37;0.37;;;;;;;5.69;70.81;103071.84;5058819;28;20029;-77
2021/12/20 11:28:59;;;;;;;0.30;0.30;;;;;;;5.70;70.95;103070.13;5058822;28;20035;-77
2021/12/20 11:31:25;;;;;;;0.47;0.47;;;;;;;5.72;71.49;103074.69;5076057;28;20073;-77
2021/12/20 11:33:50;;;;;;;0.40;0.40;;;;;;;5.78;70.75;103079.47;5076408;28;20021;-76
2021/12/20 11:36:15;;;;;;;0.33;0.33;;;;;;;5.77;70.76;103065.59;5075426;28;20099;-75
2021/12/20 11:38:41;;;;;;;0.40;0.40;;;;;;;5.71;69.93;103070.28;5075555;28;20303;-76
2021/12/20 11:41:07;;;;;;;0.40;0.40;;;;;;;5.67;70.65;103069.88;5048329;28;20092;-76
2021/12/20 11:43:32;;;;;;;0.40;0.40;;;;;;;5.66;71.46;103068.97;5075906;28;20260;-77
2021/12/20 11:45:58;;;;;;;0.40;0.40;;;;;;;5.67;71.32;103081.16;5058164;28;20047;-75
2021/12/20 11:48:26;;;;;;;0.40;0.40;;;;;;;5.67;71.28;103070.78;5076875;28;20016;-76